sensor_id;sensor_type;location;lat;lon;timestamp;pressure;altitude;pressure_sealevel;temperature;humidity
46598;BME280;32318;48.858;8.252;2023-01-13T00:07:41;99904.56;;;10.47;66.27
46598;BME280;32318;48.858;8.252;2023-01-13T00:15:42;99904.72;;;10.45;66.68
46598;BME280;32318;48.858;8.252;2023-01-13T00:23:43;99902.06;;;10.45;67.83
46598;BME280;32318;48.858;8.252;2023-01-13T00:31:43;99889.03;;;10.34;68.56
46598;BME280;32318;48.858;8.252;2023-01-13T00:39:43;99874.06;;;10.25;69.79
46598;BME280;32318;48.858;8.252;2023-01-13T00:47:44;99849.41;;;10.23;69.74
46598;BME280;32318;48.858;8.252;2023-01-13T00:55:45;99842.72;;;10.27;69.81
46598;BME280;32318;48.858;8.252;2023-01-13T01:03:49;99852.75;;;10.16;71.38
46598;BME280;32318;48.858;8.252;2023-01-13T01:11:50;99851.09;;;10.07;72.86
46598;BME280;32318;48.858;8.252;2023-01-13T01:19:50;99865.63;;;9.96;73.73
46598;BME280;32318;48.858;8.252;2023-01-13T01:27:51;99871.66;;;9.90;73.46
46598;BME280;32318;48.858;8.252;2023-01-13T01:35:52;99859.97;;;9.91;73.86
46598;BME280;32318;48.858;8.252;2023-01-13T01:52:29;99848.63;;;9.97;73.12
46598;BME280;32318;48.858;8.252;2023-01-13T02:00:31;99845.16;;;9.97;73.35
46598;BME280;32318;48.858;8.252;2023-01-13T02:08:31;99842.13;;;9.92;73.65
46598;BME280;32318;48.858;8.252;2023-01-13T02:16:32;99837.81;;;9.82;75.32
46598;BME280;32318;48.858;8.252;2023-01-13T02:41:02;99798.97;;;9.88;73.40
46598;BME280;32318;48.858;8.252;2023-01-13T02:49:30;99797.47;;;9.94;72.83
46598;BME280;32318;48.858;8.252;2023-01-13T02:57:34;99794.28;;;9.98;72.71
46598;BME280;32318;48.858;8.252;2023-01-13T03:05:36;99787.44;;;10.04;72.31
46598;BME280;32318;48.858;8.252;2023-01-13T03:13:49;99775.41;;;10.08;71.77
46598;BME280;32318;48.858;8.252;2023-01-13T03:21:54;99755.41;;;10.12;72.08
46598;BME280;32318;48.858;8.252;2023-01-13T03:30:09;99731.03;;;10.15;71.32
46598;BME280;32318;48.858;8.252;2023-01-13T03:46:25;99736.03;;;10.18;71.33
46598;BME280;32318;48.858;8.252;2023-01-13T03:54:29;99733.03;;;10.22;71.29
46598;BME280;32318;48.858;8.252;2023-01-13T04:02:56;99722.03;;;10.16;71.47
46598;BME280;32318;48.858;8.252;2023-01-13T04:11:16;99717.34;;;10.18;71.53
46598;BME280;32318;48.858;8.252;2023-01-13T04:19:18;99723.34;;;10.20;71.18
46598;BME280;32318;48.858;8.252;2023-01-13T04:27:22;99727.84;;;10.20;71.38
46598;BME280;32318;48.858;8.252;2023-01-13T04:35:22;99716.00;;;10.23;70.97
46598;BME280;32318;48.858;8.252;2023-01-13T04:43:22;99715.34;;;10.20;71.07
46598;BME280;32318;48.858;8.252;2023-01-13T04:51:23;99703.34;;;10.16;71.18
46598;BME280;32318;48.858;8.252;2023-01-13T04:59:23;99686.16;;;10.19;71.35
46598;BME280;32318;48.858;8.252;2023-01-13T05:07:26;99674.88;;;10.17;71.62
46598;BME280;32318;48.858;8.252;2023-01-13T05:15:26;99687.06;;;10.11;72.21
46598;BME280;32318;48.858;8.252;2023-01-13T05:23:45;99681.25;;;10.08;72.70
46598;BME280;32318;48.858;8.252;2023-01-13T05:32:04;99660.25;;;10.04;72.72
46598;BME280;32318;48.858;8.252;2023-01-13T05:40:09;99674.75;;;10.02;73.08
46598;BME280;32318;48.858;8.252;2023-01-13T05:48:37;99691.78;;;10.01;72.52
46598;BME280;32318;48.858;8.252;2023-01-13T05:56:37;99684.72;;;10.08;72.11
46598;BME280;32318;48.858;8.252;2023-01-13T06:04:38;99690.72;;;10.10;71.79
46598;BME280;32318;48.858;8.252;2023-01-13T06:12:38;99694.53;;;10.16;71.79
46598;BME280;32318;48.858;8.252;2023-01-13T06:20:38;99678.88;;;10.13;71.79
46598;BME280;32318;48.858;8.252;2023-01-13T06:28:39;99709.09;;;10.05;72.74
46598;BME280;32318;48.858;8.252;2023-01-13T06:36:43;99691.03;;;9.84;75.35
46598;BME280;32318;48.858;8.252;2023-01-13T06:44:44;99690.91;;;9.69;76.39
46598;BME280;32318;48.858;8.252;2023-01-13T06:52:45;99696.91;;;9.71;75.22
46598;BME280;32318;48.858;8.252;2023-01-13T07:00:45;99694.22;;;9.79;74.83
46598;BME280;32318;48.858;8.252;2023-01-13T07:08:50;99685.50;;;9.85;74.32
46598;BME280;32318;48.858;8.252;2023-01-13T07:16:51;99723.13;;;9.91;74.68
46598;BME280;32318;48.858;8.252;2023-01-13T07:24:52;99740.34;;;9.80;76.20
46598;BME280;32318;48.858;8.252;2023-01-13T07:32:52;99764.06;;;9.66;77.68
46598;BME280;32318;48.858;8.252;2023-01-13T07:40:53;99782.06;;;9.48;81.21
46598;BME280;32318;48.858;8.252;2023-01-13T07:48:53;99810.88;;;9.36;81.81
46598;BME280;32318;48.858;8.252;2023-01-13T07:56:55;99869.16;;;9.22;81.53
46598;BME280;32318;48.858;8.252;2023-01-13T08:04:55;99902.81;;;8.81;82.01
46598;BME280;32318;48.858;8.252;2023-01-13T08:12:56;99937.81;;;8.59;84.48
46598;BME280;32318;48.858;8.252;2023-01-13T08:21:15;99934.88;;;8.36;87.15
46598;BME280;32318;48.858;8.252;2023-01-13T08:29:16;99935.63;;;8.28;88.18
46598;BME280;32318;48.858;8.252;2023-01-13T08:37:16;99941.13;;;8.27;88.94
46598;BME280;32318;48.858;8.252;2023-01-13T08:45:17;99943.97;;;8.33;89.03
46598;BME280;32318;48.858;8.252;2023-01-13T08:53:17;99954.00;;;8.40;89.57
46598;BME280;32318;48.858;8.252;2023-01-13T09:01:21;99971.03;;;8.47;86.83
46598;BME280;32318;48.858;8.252;2023-01-13T09:09:22;99975.03;;;8.51;87.51
46598;BME280;32318;48.858;8.252;2023-01-13T09:17:23;99984.69;;;8.52;86.05
46598;BME280;32318;48.858;8.252;2023-01-13T09:25:32;99994.19;;;8.55;85.71
46598;BME280;32318;48.858;8.252;2023-01-13T09:33:35;100000.41;;;8.45;85.90
46598;BME280;32318;48.858;8.252;2023-01-13T09:42:32;100014.72;;;8.44;86.11
46598;BME280;32318;48.858;8.252;2023-01-13T09:51:09;100020.19;;;8.43;85.80
46598;BME280;32318;48.858;8.252;2023-01-13T09:59:13;100033.19;;;8.46;87.05
46598;BME280;32318;48.858;8.252;2023-01-13T10:07:15;100037.66;;;8.45;87.42
46598;BME280;32318;48.858;8.252;2023-01-13T10:15:19;100045.19;;;8.50;86.96
46598;BME280;32318;48.858;8.252;2023-01-13T10:31:23;100052.34;;;8.50;87.11
46598;BME280;32318;48.858;8.252;2023-01-13T10:39:23;100040.56;;;8.52;86.23
46598;BME280;32318;48.858;8.252;2023-01-13T10:55:34;100050.56;;;8.58;86.11
46598;BME280;32318;48.858;8.252;2023-01-13T11:03:37;100061.72;;;8.54;85.17
46598;BME280;32318;48.858;8.252;2023-01-13T11:11:43;100062.84;;;8.51;84.87
46598;BME280;32318;48.858;8.252;2023-01-13T11:19:49;100076.66;;;8.55;83.87
46598;BME280;32318;48.858;8.252;2023-01-13T11:27:57;100080.47;;;8.52;82.33
46598;BME280;32318;48.858;8.252;2023-01-13T11:44:15;100084.00;;;8.79;81.07
46598;BME280;32318;48.858;8.252;2023-01-13T11:52:24;100086.53;;;8.89;80.55
46598;BME280;32318;48.858;8.252;2023-01-13T12:16:48;100082.56;;;9.62;73.83
46598;BME280;32318;48.858;8.252;2023-01-13T12:25:03;100076.56;;;9.60;72.13
46598;BME280;32318;48.858;8.252;2023-01-13T12:33:14;100091.72;;;9.60;70.71
46598;BME280;32318;48.858;8.252;2023-01-13T12:57:31;100087.00;;;9.45;69.82
46598;BME280;32318;48.858;8.252;2023-01-13T13:05:56;100108.66;;;9.42;70.17
46598;BME280;32318;48.858;8.252;2023-01-13T13:14:08;100137.03;;;9.25;70.39
46598;BME280;32318;48.858;8.252;2023-01-13T13:30:17;100141.50;;;8.36;75.30
46598;BME280;32318;48.858;8.252;2023-01-13T13:46:49;100150.22;;;8.10;77.30
46598;BME280;32318;48.858;8.252;2023-01-13T13:54:51;100165.81;;;8.23;76.44
46598;BME280;32318;48.858;8.252;2023-01-13T14:02:58;100179.97;;;8.23;77.03
46598;BME280;32318;48.858;8.252;2023-01-13T14:11:00;100188.53;;;8.17;76.56
46598;BME280;32318;48.858;8.252;2023-01-13T14:19:00;100195.34;;;8.01;77.76
46598;BME280;32318;48.858;8.252;2023-01-13T14:27:17;100196.16;;;8.02;76.13
46598;BME280;32318;48.858;8.252;2023-01-13T14:35:18;100195.34;;;8.01;75.84
46598;BME280;32318;48.858;8.252;2023-01-13T14:43:19;100207.00;;;8.19;75.54
46598;BME280;32318;48.858;8.252;2023-01-13T14:51:25;100222.53;;;8.23;75.54
46598;BME280;32318;48.858;8.252;2023-01-13T15:15:50;100252.84;;;8.03;78.77
46598;BME280;32318;48.858;8.252;2023-01-13T15:23:51;100296.44;;;7.82;78.68
46598;BME280;32318;48.858;8.252;2023-01-13T15:31:51;100295.66;;;7.72;81.45
46598;BME280;32318;48.858;8.252;2023-01-13T15:39:52;100284.59;;;7.66;84.22
46598;BME280;32318;48.858;8.252;2023-01-13T15:47:57;100310.47;;;7.64;83.67
46598;BME280;32318;48.858;8.252;2023-01-13T15:55:59;100312.69;;;7.79;85.95
46598;BME280;32318;48.858;8.252;2023-01-13T16:03:59;100312.81;;;7.87;83.46
46598;BME280;32318;48.858;8.252;2023-01-13T16:12:00;100340.06;;;7.89;82.77
46598;BME280;32318;48.858;8.252;2023-01-13T16:20:00;100346.78;;;7.93;80.42
46598;BME280;32318;48.858;8.252;2023-01-13T16:28:01;100369.16;;;8.00;78.73
46598;BME280;32318;48.858;8.252;2023-01-13T16:36:07;100380.59;;;8.11;77.91
46598;BME280;32318;48.858;8.252;2023-01-13T16:44:08;100375.81;;;8.14;78.64
46598;BME280;32318;48.858;8.252;2023-01-13T16:52:09;100389.50;;;8.20;76.15
46598;BME280;32318;48.858;8.252;2023-01-13T17:00:10;100416.00;;;8.21;77.57
46598;BME280;32318;48.858;8.252;2023-01-13T17:08:12;100424.78;;;8.22;77.00
46598;BME280;32318;48.858;8.252;2023-01-13T17:16:19;100423.16;;;8.11;76.80
46598;BME280;32318;48.858;8.252;2023-01-13T17:24:20;100447.50;;;8.06;76.69
46598;BME280;32318;48.858;8.252;2023-01-13T17:32:21;100476.91;;;7.95;76.65
46598;BME280;32318;48.858;8.252;2023-01-13T17:40:22;100486.84;;;7.83;76.32
46598;BME280;32318;48.858;8.252;2023-01-13T17:48:22;100505.31;;;7.65;76.70
46598;BME280;32318;48.858;8.252;2023-01-13T17:56:23;100520.53;;;7.53;76.45
46598;BME280;32318;48.858;8.252;2023-01-13T18:04:25;100540.63;;;7.46;76.46
46598;BME280;32318;48.858;8.252;2023-01-13T18:12:29;100537.00;;;7.37;76.30
46598;BME280;32318;48.858;8.252;2023-01-13T18:20:30;100548.56;;;7.26;75.40
46598;BME280;32318;48.858;8.252;2023-01-13T18:28:48;100552.88;;;7.17;76.17
46598;BME280;32318;48.858;8.252;2023-01-13T18:36:49;100560.25;;;7.14;76.65
46598;BME280;32318;48.858;8.252;2023-01-13T18:44:49;100568.50;;;7.11;75.30
46598;BME280;32318;48.858;8.252;2023-01-13T18:52:50;100560.56;;;7.11;75.72
46598;BME280;32318;48.858;8.252;2023-01-13T19:00:59;100577.72;;;7.16;79.09
46598;BME280;32318;48.858;8.252;2023-01-13T19:09:00;100577.47;;;7.19;77.66
46598;BME280;32318;48.858;8.252;2023-01-13T19:17:12;100579.47;;;7.27;77.98
46598;BME280;32318;48.858;8.252;2023-01-13T19:25:13;100580.06;;;7.41;77.94
46598;BME280;32318;48.858;8.252;2023-01-13T19:33:13;100594.63;;;7.46;76.63
46598;BME280;32318;48.858;8.252;2023-01-13T19:41:14;100593.97;;;7.54;76.26
46598;BME280;32318;48.858;8.252;2023-01-13T19:49:32;100629.06;;;7.58;75.66
46598;BME280;32318;48.858;8.252;2023-01-13T19:57:33;100627.09;;;7.60;75.67
46598;BME280;32318;48.858;8.252;2023-01-13T20:05:33;100635.22;;;7.58;75.67
46598;BME280;32318;48.858;8.252;2023-01-13T20:13:33;100645.53;;;7.51;75.78
46598;BME280;32318;48.858;8.252;2023-01-13T20:21:33;100651.94;;;7.39;77.07
46598;BME280;32318;48.858;8.252;2023-01-13T20:29:34;100656.13;;;7.42;78.30
46598;BME280;32318;48.858;8.252;2023-01-13T20:37:38;100662.97;;;7.34;78.60
46598;BME280;32318;48.858;8.252;2023-01-13T20:45:39;100687.13;;;7.31;79.00
46598;BME280;32318;48.858;8.252;2023-01-13T20:53:39;100705.56;;;7.33;77.54
46598;BME280;32318;48.858;8.252;2023-01-13T21:01:40;100709.28;;;7.20;80.06
46598;BME280;32318;48.858;8.252;2023-01-13T21:09:41;100714.03;;;7.17;79.47
46598;BME280;32318;48.858;8.252;2023-01-13T21:17:42;100712.78;;;7.21;80.17
46598;BME280;32318;48.858;8.252;2023-01-13T21:26:01;100709.63;;;7.27;80.31
46598;BME280;32318;48.858;8.252;2023-01-13T21:34:01;100705.84;;;7.30;80.13
46598;BME280;32318;48.858;8.252;2023-01-13T21:42:03;100725.28;;;7.30;79.68
46598;BME280;32318;48.858;8.252;2023-01-13T21:50:24;100722.19;;;7.25;80.41
46598;BME280;32318;48.858;8.252;2023-01-13T21:58:24;100711.09;;;7.20;80.08
46598;BME280;32318;48.858;8.252;2023-01-13T22:06:25;100729.47;;;7.12;79.66
46598;BME280;32318;48.858;8.252;2023-01-13T22:14:25;100735.06;;;7.09;79.73
46598;BME280;32318;48.858;8.252;2023-01-13T22:22:26;100734.59;;;7.03;80.46
46598;BME280;32318;48.858;8.252;2023-01-13T22:30:28;100743.09;;;6.97;81.29
46598;BME280;32318;48.858;8.252;2023-01-13T22:38:31;100748.06;;;6.90;80.68
46598;BME280;32318;48.858;8.252;2023-01-13T22:46:33;100765.66;;;6.91;81.18
46598;BME280;32318;48.858;8.252;2023-01-13T22:54:34;100765.66;;;6.91;80.91
46598;BME280;32318;48.858;8.252;2023-01-13T23:02:36;100754.31;;;6.89;80.16
46598;BME280;32318;48.858;8.252;2023-01-13T23:10:37;100759.53;;;6.91;80.32
46598;BME280;32318;48.858;8.252;2023-01-13T23:18:38;100743.59;;;6.91;79.78
46598;BME280;32318;48.858;8.252;2023-01-13T23:26:41;100742.16;;;6.87;79.03
46598;BME280;32318;48.858;8.252;2023-01-13T23:34:41;100751.69;;;6.89;78.28
46598;BME280;32318;48.858;8.252;2023-01-13T23:42:42;100733.38;;;6.86;78.07
46598;BME280;32318;48.858;8.252;2023-01-13T23:50:42;100751.09;;;6.86;78.37
46598;BME280;32318;48.858;8.252;2023-01-13T23:58:43;100759.44;;;6.81;78.90
